Hamnavoe — VSTY7 — position and weather

sailwx.info

Track history (hours):
 
Tides and Currents Weather Stations Pressure Air Temp Water Temp Dewpoint Dewpoint Depression Visibility Wind Speed Wind Dir Waves Ship Positions

Hamnavoe

Operator: NorthLink Orkey & Shetland Ferries Ltd

Last reported at 2015-Jul-05 04:33 UTC. Time now 2015-Jul-05 06:06 UTC.
Position N 58°58' W 003°18'.

Length 112 m; draft 4.2 m.

Type: Ship. MMSI: 235449000.

Date/timePositionNaut miles runAvg speedWind from/ knotsBaromVisibWave heightAir tempDewpointWater temp
2015-Jul-05 04:33N 58°58' W 003°18'0 0.0
2015-Jul-05 03:33N 58°58' W 003°18'0 0.0
2015-Jul-05 02:33N 58°58' W 003°18'0 0.0
2015-Jul-05 01:33N 58°58' W 003°18'0 0.0
2015-Jul-05 00:33N 58°58' W 003°18'0 0.0
2015-Jul-04 23:33N 58°58' W 003°18'0 0.0
2015-Jul-04 22:33N 58°58' W 003°18'0 0.0
2015-Jul-04 21:33N 58°58' W 003°18'0 0.0
2015-Jul-04 20:33N 58°58' W 003°18'0 0.0
2015-Jul-04 19:33N 58°58' W 003°18'1212.2
2015-Jul-04 18:33N 58°47' W 003°29'11 9.8
2015-Jul-04 17:27N 58°37' W 003°32'1112.5
2015-Jul-04 16:33N 58°48' W 003°29'1211.7
2015-Jul-04 15:33N 58°58' W 003°18'0 0.0
2015-Jul-04 14:33N 58°58' W 003°18'4 3.7
2015-Jul-04 13:34N 58°56' W 003°24'1817.9
2015-Jul-04 12:33N 58°39' W 003°31'1 1.0
2015-Jul-04 11:31N 58°38' W 003°31'1718.1
2015-Jul-04 10:33N 58°55' W 003°26'5 5.3
2015-Jul-04 09:33N 58°58' W 003°18'8 8.4
2015-Jul-04 08:33N 58°51' W 003°28'1514.8
2015-Jul-04 07:33N 58°37' W 003°32'7 7.4
2015-Jul-04 06:33N 58°44' W 003°29'1515.0
2015-Jul-04 05:33N 58°58' W 003°18'0 0.2
2015-Jul-04 04:28N 58°58' W 003°18'0 0.0
2015-Jul-04 03:31N 58°58' W 003°18'0 0.0
2015-Jul-04 02:31N 58°58' W 003°18'0 0.0
2015-Jul-04 01:31N 58°58' W 003°18'0 0.0
2015-Jul-04 00:31N 58°58' W 003°18'0 0.0
2015-Jul-03 23:31N 58°58' W 003°18'0 0.0
2015-Jul-03 22:31N 58°58' W 003°18'0 0.0
2015-Jul-03 21:31N 58°58' W 003°18'0 0.0
2015-Jul-03 20:31N 58°58' W 003°18'0 0.0
2015-Jul-03 19:33N 58°58' W 003°18'1413.5
2015-Jul-03 18:33N 58°46' W 003°29'9 9.2
2015-Jul-03 17:33N 58°37' W 003°32'1110.7
2015-Jul-03 16:33N 58°47' W 003°28'1211.9
2015-Jul-03 15:33N 58°58' W 003°18'0 0.0
2015-Jul-03 14:33N 58°58' W 003°18'1 0.9
2015-Jul-03 13:34N 58°57' W 003°17'1515.3
2015-Jul-03 12:33N 58°43' W 003°30'6 6.5
2015-Jul-03 11:33N 58°37' W 003°32'1616.2
2015-Jul-03 10:33N 58°53' W 003°28'7 7.4
2015-Jul-03 09:33N 58°58' W 003°18'9 8.8
2015-Jul-03 08:33N 58°51' W 003°28'1414.4
2015-Jul-03 07:33N 58°37' W 003°32'7 7.3
2015-Jul-03 06:33N 58°44' W 003°30'1515.0
2015-Jul-03 05:33N 58°57' W 003°18'0 0.4
2015-Jul-03 04:33N 58°58' W 003°18'0 0.0
2015-Jul-02 22:33N 58°58' W 003°18'0 0.0
2015-Jul-02 21:33N 58°58' W 003°18'0 0.0
2015-Jul-02 20:33N 58°58' W 003°18'0 0.0
2015-Jul-02 19:33N 58°58' W 003°18'1111.5
2015-Jul-02 18:33N 58°48' W 003°29'0 0.2
2015-Jul-02 16:33N 58°48' W 003°29'1211.6
2015-Jul-02 15:34N 58°58' W 003°18'0 0.0
2015-Jul-02 14:34N 58°58' W 003°18'1 1.0
2015-Jul-02 13:33N 58°57' W 003°18'1515.2
2015-Jul-02 12:33N 58°43' W 003°30'6 6.4
2015-Jul-02 11:33N 58°37' W 003°32'1515.0
2015-Jul-02 10:34N 58°51' W 003°28'8 8.1
2015-Jul-02 09:32N 58°58' W 003°18'8 8.6
2015-Jul-02 08:33N 58°51' W 003°28'1514.7
2015-Jul-02 07:33N 58°37' W 003°32'7 7.0
2015-Jul-02 06:33N 58°43' W 003°30'1515.3
2015-Jul-02 05:33N 58°57' W 003°18'1 0.5
2015-Jul-02 04:33N 58°58' W 003°18'0 0.0
2015-Jul-02 03:33N 58°58' W 003°18'0 0.0
2015-Jul-02 02:33N 58°58' W 003°18'0 0.0
2015-Jul-02 01:33N 58°58' W 003°18'0 0.0
2015-Jul-02 00:33N 58°58' W 003°18'0 0.0
2015-Jul-01 23:33N 58°58' W 003°18'0 0.0
2015-Jul-01 22:21N 58°58' W 003°18'0 0.0
2015-Jul-01 21:33N 58°58' W 003°18'0 0.0
2015-Jul-01 20:33N 58°58' W 003°18'0 0.0
2015-Jul-01 19:33N 58°58' W 003°18'1312.7
2015-Jul-01 18:33N 58°47' W 003°30'1010.1
2015-Jul-01 17:33N 58°37' W 003°32'1212.0
2015-Jul-01 16:33N 58°48' W 003°28'1110.7
2015-Jul-01 15:33N 58°58' W 003°18'0 0.0
2015-Jul-01 14:33N 58°58' W 003°18'0 0.3
2015-Jul-01 13:33N 58°57' W 003°18'1514.6
2015-Jul-01 12:34N 58°44' W 003°30'8 7.6
2015-Jul-01 11:32N 58°37' W 003°32'1414.5
2015-Jul-01 10:33N 58°51' W 003°28'9 8.8
2015-Jul-01 09:33N 58°58' W 003°18'8 8.2
2015-Jul-01 08:33N 58°52' W 003°28'1514.9
2015-Jul-01 07:33N 58°37' W 003°32'7 7.1
2015-Jul-01 06:34N 58°44' W 003°30'1515.1
2015-Jul-01 05:33N 58°57' W 003°18'0 0.5
2015-Jul-01 04:29N 58°58' W 003°18'0 0.0
2015-Jul-01 03:32N 58°58' W 003°18'0 0.0
2015-Jul-01 02:32N 58°58' W 003°18'0 0.0
2015-Jul-01 01:32N 58°58' W 003°18'0 0.0
2015-Jul-01 00:29N 58°58' W 003°18'0 0.0
2015-Jun-30 23:33N 58°58' W 003°18'0 0.0
2015-Jun-30 22:30N 58°58' W 003°18'0 0.0
2015-Jun-30 21:33N 58°58' W 003°18'0 0.0
2015-Jun-30 20:30N 58°58' W 003°18'0 0.0
2015-Jun-30 19:33N 58°58' W 003°18'1313.2
2015-Jun-30 18:33N 58°46' W 003°29'10 9.6
2015-Jun-30 17:33N 58°37' W 003°32'1414.0
2015-Jun-30 16:33N 58°50' W 003°28'9 9.2
2015-Jun-30 15:33N 58°58' W 003°18'0 0.0
2015-Jun-30 14:33N 58°58' W 003°18'1 1.0
2015-Jun-30 13:33N 58°57' W 003°18'1616.1
2015-Jun-30 12:33N 58°42' W 003°30'5 5.4
2015-Jun-30 11:33N 58°37' W 003°32'1515.3
2015-Jun-30 10:33N 58°52' W 003°28'8 8.0
2015-Jun-30 09:33N 58°58' W 003°18'9 8.5
2015-Jun-30 08:33N 58°52' W 003°29'1515.1
2015-Jun-30 07:34N 58°37' W 003°32'7 6.9
2015-Jun-30 06:33N 58°43' W 003°30'1515.2
2015-Jun-30 05:33N 58°57' W 003°18'1 0.6
2015-Jun-30 04:32N 58°58' W 003°18'0 0.0
2015-Jun-30 03:29N 58°58' W 003°18'0 0.0
2015-Jun-30 02:29N 58°58' W 003°18'0 0.0
2015-Jun-30 01:29N 58°58' W 003°18'0 0.0
2015-Jun-30 00:29N 58°58' W 003°18'0 0.0
2015-Jun-29 23:29N 58°58' W 003°18'0 0.0
2015-Jun-29 22:29N 58°58' W 003°18'0 0.0
2015-Jun-29 21:29N 58°58' W 003°18'0 0.0
2015-Jun-29 20:29N 58°58' W 003°18'0 0.0
2015-Jun-29 19:33N 58°58' W 003°18'1413.6
2015-Jun-29 18:34N 58°46' W 003°30'9 9.2
2015-Jun-29 17:33N 58°37' W 003°32'1212.1
2015-Jun-29 16:33N 58°49' W 003°29'1110.9
2015-Jun-29 15:34N 58°58' W 003°18'0 0.0
2015-Jun-29 14:33N 58°58' W 003°18'0 0.5
2015-Jun-29 13:33N 58°57' W 003°18'1515.2
2015-Jun-29 12:33N 58°44' W 003°30'7 7.0
2015-Jun-29 11:33N 58°37' W 003°32'1414.3
2015-Jun-29 10:33N 58°51' W 003°28'9 8.9
2015-Jun-29 09:33N 58°58' W 003°18'8 8.1
2015-Jun-29 08:33N 58°52' W 003°28'1515.3
2015-Jun-29 07:33N 58°37' W 003°32'7 7.0
2015-Jun-29 06:33N 58°44' W 003°30'1515.1
2015-Jun-29 05:33N 58°57' W 003°17'1 0.6
2015-Jun-29 04:28N 58°58' W 003°18'0 0.0
2015-Jun-29 03:31N 58°58' W 003°18'0 0.0
2015-Jun-29 02:31N 58°58' W 003°18'0 0.0
2015-Jun-29 01:31N 58°58' W 003°18'0 0.0
2015-Jun-29 00:31N 58°58' W 003°18'0 0.0
2015-Jun-28 23:31N 58°58' W 003°18'0 0.0
2015-Jun-28 22:31N 58°58' W 003°18'0 0.0
2015-Jun-28 21:31N 58°58' W 003°18'0 0.0
2015-Jun-28 20:31N 58°58' W 003°18'0 0.0
2015-Jun-28 19:33N 58°58' W 003°18'1111.0
2015-Jun-28 18:33N 58°48' W 003°29'1211.9
2015-Jun-28 17:33N 58°37' W 003°32'1111.5
2015-Jun-28 16:33N 58°48' W 003°29'1111.3
2015-Jun-28 15:33N 58°58' W 003°18'0 0.0
2015-Jun-28 14:30N 58°58' W 003°18'0 0.0
2015-Jun-28 13:30N 58°58' W 003°18'0 0.0
2015-Jun-28 12:30N 58°58' W 003°18'1112.1
2015-Jun-28 11:33N 58°48' W 003°29'1111.5
2015-Jun-28 10:33N 58°37' W 003°32'0 0.0
2015-Jun-28 09:33N 58°37' W 003°32'1615.6
2015-Jun-28 08:33N 58°52' W 003°28'8 7.6
2015-Jun-28 07:31N 58°58' W 003°18'0 0.0
2015-Jun-28 06:31N 58°58' W 003°18'0 0.0
2015-Jun-28 05:31N 58°58' W 003°18'0 0.0
2015-Jun-28 04:31N 58°58' W 003°18'0 0.0
2015-Jun-28 03:31N 58°58' W 003°18'0 0.0
2015-Jun-28 02:31N 58°58' W 003°18'0 0.0
2015-Jun-28 01:31N 58°58' W 003°18'0 0.0
2015-Jun-28 00:31N 58°58' W 003°18'0 0.0
2015-Jun-27 23:31N 58°58' W 003°18'0 0.0
2015-Jun-27 22:31N 58°58' W 003°18'0 0.0
2015-Jun-27 21:31N 58°58' W 003°18'0 0.0
2015-Jun-27 20:25N 58°58' W 003°18'0 0.0
2015-Jun-27 19:31N 58°58' W 003°18'1111.0
2015-Jun-27 18:34N 58°49' W 003°29'1212.3
2015-Jun-27 17:33N 58°37' W 003°32'1010.5
2015-Jun-27 16:33N 58°47' W 003°29'1212.2
2015-Jun-27 15:33N 58°58' W 003°18'0 0.0
2015-Jun-27 14:34N 58°58' W 003°18'2 1.7
2015-Jun-27 13:33N 58°57' W 003°20'1716.9
2015-Jun-27 12:33N 58°41' W 003°31'4 4.2
2015-Jun-27 11:33N 58°37' W 003°32'1616.1
2015-Jun-27 10:33N 58°53' W 003°28'7 7.3
2015-Jun-27 09:33N 58°58' W 003°18'9 9.4
2015-Jun-27 08:34N 58°51' W 003°29'1413.9
2015-Jun-27 07:33N 58°37' W 003°32'9 8.7
2015-Jun-27 06:33N 58°45' W 003°30'1414.1
2015-Jun-27 05:33N 58°58' W 003°18'0 0.0
2015-Jun-27 04:31N 58°58' W 003°18'0 0.0
2015-Jun-27 03:31N 58°58' W 003°18'0 0.0
2015-Jun-27 02:31N 58°58' W 003°18'0 0.0
2015-Jun-27 01:31N 58°58' W 003°18'0 0.0
2015-Jun-27 00:31N 58°58' W 003°18'0 0.0
2015-Jun-26 23:31N 58°58' W 003°18'0 0.0
2015-Jun-26 22:31N 58°58' W 003°18'0 0.0
2015-Jun-26 21:28N 58°58' W 003°18'0 0.0
2015-Jun-26 20:31N 58°58' W 003°18'0 0.0
2015-Jun-26 19:31N 58°58' W 003°18'1212.5
2015-Jun-26 18:33N 58°47' W 003°29'1110.6
2015-Jun-26 17:33N 58°37' W 003°32'1111.4
2015-Jun-26 16:33N 58°48' W 003°29'1111.6
2015-Jun-26 15:34N 58°58' W 003°18'0 0.0
2015-Jun-26 14:33N 58°58' W 003°18'0 0.4
2015-Jun-26 13:33N 58°57' W 003°18'1615.5
2015-Jun-26 12:33N 58°43' W 003°30'7 6.7
2015-Jun-26 11:33N 58°37' W 003°32'1515.4
2015-Jun-26 10:33N 58°52' W 003°28'8 8.0
2015-Jun-26 09:33N 58°58' W 003°18'8 7.8
2015-Jun-26 08:33N 58°52' W 003°28'1615.7
2015-Jun-26 07:33N 58°37' W 003°32'6 6.5
2015-Jun-26 06:34N 58°43' W 003°30'1615.7
2015-Jun-26 05:33N 58°57' W 003°18'0 0.5
2015-Jun-26 04:33N 58°58' W 003°18'0 0.0
2015-Jun-26 03:33N 58°58' W 003°18'0 0.0
2015-Jun-26 02:33N 58°58' W 003°18'0 0.0
2015-Jun-26 01:33N 58°58' W 003°18'0 0.0
2015-Jun-26 00:33N 58°58' W 003°18'0 0.0
2015-Jun-25 23:33N 58°58' W 003°18'0 0.0
2015-Jun-25 22:33N 58°58' W 003°18'0 0.0
2015-Jun-25 21:27N 58°58' W 003°18'0 0.0
2015-Jun-25 20:33N 58°58' W 003°18'0 0.0
2015-Jun-25 19:31N 58°58' W 003°18'1112.0
2015-Jun-25 18:33N 58°48' W 003°29'1111.4
2015-Jun-25 17:33N 58°37' W 003°32'1110.9
2015-Jun-25 16:33N 58°47' W 003°29'1212.0
2015-Jun-25 15:33N 58°58' W 003°18'0 0.0
2015-Jun-25 14:33N 58°58' W 003°18'1 0.6
2015-Jun-25 13:33N 58°57' W 003°17'1515.4
2015-Jun-25 12:34N 58°44' W 003°31'7 6.5
2015-Jun-25 11:30N 58°37' W 003°32'1515.6
2015-Jun-25 10:33N 58°51' W 003°28'9 8.6
2015-Jun-25 09:33N 58°58' W 003°18'7 7.5
2015-Jun-25 08:33N 58°52' W 003°28'1615.9
2015-Jun-25 07:33N 58°37' W 003°32'6 6.5
2015-Jun-25 06:34N 58°43' W 003°30'1615.7
2015-Jun-25 05:33N 58°57' W 003°18'  
Track history (hours):
 
Tides and Currents Weather Stations Pressure Air Temp Water Temp Dewpoint Dewpoint Depression Visibility Wind Speed Wind Dir Waves Ship Positions

Hamnavoe

Operator: NorthLink Orkey & Shetland Ferries Ltd

Last reported at 2015-Jul-05 04:33 UTC. Time now 2015-Jul-05 06:06 UTC.
Position N 58°58' W 003°18'.

Length 112 m; draft 4.2 m.

Type: Ship. MMSI: 235449000.

Date/timePositionNaut miles runAvg speedWind from/ knotsBaromVisibWave heightAir tempDewpointWater temp
2015-Jul-05 04:33N 58°58' W 003°18'0 0.0
2015-Jul-05 03:33N 58°58' W 003°18'0 0.0
2015-Jul-05 02:33N 58°58' W 003°18'0 0.0
2015-Jul-05 01:33N 58°58' W 003°18'0 0.0
2015-Jul-05 00:33N 58°58' W 003°18'0 0.0
2015-Jul-04 23:33N 58°58' W 003°18'0 0.0
2015-Jul-04 22:33N 58°58' W 003°18'0 0.0
2015-Jul-04 21:33N 58°58' W 003°18'0 0.0
2015-Jul-04 20:33N 58°58' W 003°18'0 0.0
2015-Jul-04 19:33N 58°58' W 003°18'1212.2
2015-Jul-04 18:33N 58°47' W 003°29'11 9.8
2015-Jul-04 17:27N 58°37' W 003°32'1112.5
2015-Jul-04 16:33N 58°48' W 003°29'1211.7
2015-Jul-04 15:33N 58°58' W 003°18'0 0.0
2015-Jul-04 14:33N 58°58' W 003°18'4 3.7
2015-Jul-04 13:34N 58°56' W 003°24'1817.9
2015-Jul-04 12:33N 58°39' W 003°31'1 1.0
2015-Jul-04 11:31N 58°38' W 003°31'1718.1
2015-Jul-04 10:33N 58°55' W 003°26'5 5.3
2015-Jul-04 09:33N 58°58' W 003°18'8 8.4
2015-Jul-04 08:33N 58°51' W 003°28'1514.8
2015-Jul-04 07:33N 58°37' W 003°32'7 7.4
2015-Jul-04 06:33N 58°44' W 003°29'1515.0
2015-Jul-04 05:33N 58°58' W 003°18'0 0.2
2015-Jul-04 04:28N 58°58' W 003°18'0 0.0
2015-Jul-04 03:31N 58°58' W 003°18'0 0.0
2015-Jul-04 02:31N 58°58' W 003°18'0 0.0
2015-Jul-04 01:31N 58°58' W 003°18'0 0.0
2015-Jul-04 00:31N 58°58' W 003°18'0 0.0
2015-Jul-03 23:31N 58°58' W 003°18'0 0.0
2015-Jul-03 22:31N 58°58' W 003°18'0 0.0
2015-Jul-03 21:31N 58°58' W 003°18'0 0.0
2015-Jul-03 20:31N 58°58' W 003°18'0 0.0
2015-Jul-03 19:33N 58°58' W 003°18'1413.5
2015-Jul-03 18:33N 58°46' W 003°29'9 9.2
2015-Jul-03 17:33N 58°37' W 003°32'1110.7
2015-Jul-03 16:33N 58°47' W 003°28'1211.9
2015-Jul-03 15:33N 58°58' W 003°18'0 0.0
2015-Jul-03 14:33N 58°58' W 003°18'1 0.9
2015-Jul-03 13:34N 58°57' W 003°17'1515.3
2015-Jul-03 12:33N 58°43' W 003°30'6 6.5
2015-Jul-03 11:33N 58°37' W 003°32'1616.2
2015-Jul-03 10:33N 58°53' W 003°28'7 7.4
2015-Jul-03 09:33N 58°58' W 003°18'9 8.8
2015-Jul-03 08:33N 58°51' W 003°28'1414.4
2015-Jul-03 07:33N 58°37' W 003°32'7 7.3
2015-Jul-03 06:33N 58°44' W 003°30'1515.0
2015-Jul-03 05:33N 58°57' W 003°18'0 0.4
2015-Jul-03 04:33N 58°58' W 003°18'0 0.0
2015-Jul-02 22:33N 58°58' W 003°18'0 0.0
2015-Jul-02 21:33N 58°58' W 003°18'0 0.0
2015-Jul-02 20:33N 58°58' W 003°18'0 0.0
2015-Jul-02 19:33N 58°58' W 003°18'1111.5
2015-Jul-02 18:33N 58°48' W 003°29'0 0.2
2015-Jul-02 16:33N 58°48' W 003°29'1211.6
2015-Jul-02 15:34N 58°58' W 003°18'0 0.0
2015-Jul-02 14:34N 58°58' W 003°18'1 1.0
2015-Jul-02 13:33N 58°57' W 003°18'1515.2
2015-Jul-02 12:33N 58°43' W 003°30'6 6.4
2015-Jul-02 11:33N 58°37' W 003°32'1515.0
2015-Jul-02 10:34N 58°51' W 003°28'8 8.1
2015-Jul-02 09:32N 58°58' W 003°18'8 8.6
2015-Jul-02 08:33N 58°51' W 003°28'1514.7
2015-Jul-02 07:33N 58°37' W 003°32'7 7.0
2015-Jul-02 06:33N 58°43' W 003°30'1515.3
2015-Jul-02 05:33N 58°57' W 003°18'1 0.5
2015-Jul-02 04:33N 58°58' W 003°18'0 0.0
2015-Jul-02 03:33N 58°58' W 003°18'0 0.0
2015-Jul-02 02:33N 58°58' W 003°18'0 0.0
2015-Jul-02 01:33N 58°58' W 003°18'0 0.0
2015-Jul-02 00:33N 58°58' W 003°18'0 0.0
2015-Jul-01 23:33N 58°58' W 003°18'0 0.0
2015-Jul-01 22:21N 58°58' W 003°18'0 0.0
2015-Jul-01 21:33N 58°58' W 003°18'0 0.0
2015-Jul-01 20:33N 58°58' W 003°18'0 0.0
2015-Jul-01 19:33N 58°58' W 003°18'1312.7
2015-Jul-01 18:33N 58°47' W 003°30'1010.1
2015-Jul-01 17:33N 58°37' W 003°32'1212.0
2015-Jul-01 16:33N 58°48' W 003°28'1110.7
2015-Jul-01 15:33N 58°58' W 003°18'0 0.0
2015-Jul-01 14:33N 58°58' W 003°18'0 0.3
2015-Jul-01 13:33N 58°57' W 003°18'1514.6
2015-Jul-01 12:34N 58°44' W 003°30'8 7.6
2015-Jul-01 11:32N 58°37' W 003°32'1414.5
2015-Jul-01 10:33N 58°51' W 003°28'9 8.8
2015-Jul-01 09:33N 58°58' W 003°18'8 8.2
2015-Jul-01 08:33N 58°52' W 003°28'1514.9
2015-Jul-01 07:33N 58°37' W 003°32'7 7.1
2015-Jul-01 06:34N 58°44' W 003°30'1515.1
2015-Jul-01 05:33N 58°57' W 003°18'0 0.5
2015-Jul-01 04:29N 58°58' W 003°18'0 0.0
2015-Jul-01 03:32N 58°58' W 003°18'0 0.0
2015-Jul-01 02:32N 58°58' W 003°18'0 0.0
2015-Jul-01 01:32N 58°58' W 003°18'0 0.0
2015-Jul-01 00:29N 58°58' W 003°18'0 0.0
2015-Jun-30 23:33N 58°58' W 003°18'0 0.0
2015-Jun-30 22:30N 58°58' W 003°18'0 0.0
2015-Jun-30 21:33N 58°58' W 003°18'0 0.0
2015-Jun-30 20:30N 58°58' W 003°18'0 0.0
2015-Jun-30 19:33N 58°58' W 003°18'1313.2
2015-Jun-30 18:33N 58°46' W 003°29'10 9.6
2015-Jun-30 17:33N 58°37' W 003°32'1414.0
2015-Jun-30 16:33N 58°50' W 003°28'9 9.2
2015-Jun-30 15:33N 58°58' W 003°18'0 0.0
2015-Jun-30 14:33N 58°58' W 003°18'1 1.0
2015-Jun-30 13:33N 58°57' W 003°18'1616.1
2015-Jun-30 12:33N 58°42' W 003°30'5 5.4
2015-Jun-30 11:33N 58°37' W 003°32'1515.3
2015-Jun-30 10:33N 58°52' W 003°28'8 8.0
2015-Jun-30 09:33N 58°58' W 003°18'9 8.5
2015-Jun-30 08:33N 58°52' W 003°29'1515.1
2015-Jun-30 07:34N 58°37' W 003°32'7 6.9
2015-Jun-30 06:33N 58°43' W 003°30'1515.2
2015-Jun-30 05:33N 58°57' W 003°18'1 0.6
2015-Jun-30 04:32N 58°58' W 003°18'0 0.0
2015-Jun-30 03:29N 58°58' W 003°18'0 0.0
2015-Jun-30 02:29N 58°58' W 003°18'0 0.0
2015-Jun-30 01:29N 58°58' W 003°18'0 0.0
2015-Jun-30 00:29N 58°58' W 003°18'0 0.0
2015-Jun-29 23:29N 58°58' W 003°18'0 0.0
2015-Jun-29 22:29N 58°58' W 003°18'0 0.0
2015-Jun-29 21:29N 58°58' W 003°18'0 0.0
2015-Jun-29 20:29N 58°58' W 003°18'0 0.0
2015-Jun-29 19:33N 58°58' W 003°18'1413.6
2015-Jun-29 18:34N 58°46' W 003°30'9 9.2
2015-Jun-29 17:33N 58°37' W 003°32'1212.1
2015-Jun-29 16:33N 58°49' W 003°29'1110.9
2015-Jun-29 15:34N 58°58' W 003°18'0 0.0
2015-Jun-29 14:33N 58°58' W 003°18'0 0.5
2015-Jun-29 13:33N 58°57' W 003°18'1515.2
2015-Jun-29 12:33N 58°44' W 003°30'7 7.0
2015-Jun-29 11:33N 58°37' W 003°32'1414.3
2015-Jun-29 10:33N 58°51' W 003°28'9 8.9
2015-Jun-29 09:33N 58°58' W 003°18'8 8.1
2015-Jun-29 08:33N 58°52' W 003°28'1515.3
2015-Jun-29 07:33N 58°37' W 003°32'7 7.0
2015-Jun-29 06:33N 58°44' W 003°30'1515.1
2015-Jun-29 05:33N 58°57' W 003°17'1 0.6
2015-Jun-29 04:28N 58°58' W 003°18'0 0.0
2015-Jun-29 03:31N 58°58' W 003°18'0 0.0
2015-Jun-29 02:31N 58°58' W 003°18'0 0.0
2015-Jun-29 01:31N 58°58' W 003°18'0 0.0
2015-Jun-29 00:31N 58°58' W 003°18'0 0.0
2015-Jun-28 23:31N 58°58' W 003°18'0 0.0
2015-Jun-28 22:31N 58°58' W 003°18'0 0.0
2015-Jun-28 21:31N 58°58' W 003°18'0 0.0
2015-Jun-28 20:31N 58°58' W 003°18'0 0.0
2015-Jun-28 19:33N 58°58' W 003°18'1111.0
2015-Jun-28 18:33N 58°48' W 003°29'1211.9
2015-Jun-28 17:33N 58°37' W 003°32'1111.5
2015-Jun-28 16:33N 58°48' W 003°29'1111.3
2015-Jun-28 15:33N 58°58' W 003°18'0 0.0
2015-Jun-28 14:30N 58°58' W 003°18'0 0.0
2015-Jun-28 13:30N 58°58' W 003°18'0 0.0
2015-Jun-28 12:30N 58°58' W 003°18'1112.1
2015-Jun-28 11:33N 58°48' W 003°29'1111.5
2015-Jun-28 10:33N 58°37' W 003°32'0 0.0
2015-Jun-28 09:33N 58°37' W 003°32'1615.6
2015-Jun-28 08:33N 58°52' W 003°28'8 7.6
2015-Jun-28 07:31N 58°58' W 003°18'0 0.0
2015-Jun-28 06:31N 58°58' W 003°18'0 0.0
2015-Jun-28 05:31N 58°58' W 003°18'0 0.0
2015-Jun-28 04:31N 58°58' W 003°18'0 0.0
2015-Jun-28 03:31N 58°58' W 003°18'0 0.0
2015-Jun-28 02:31N 58°58' W 003°18'0 0.0
2015-Jun-28 01:31N 58°58' W 003°18'0 0.0
2015-Jun-28 00:31N 58°58' W 003°18'0 0.0
2015-Jun-27 23:31N 58°58' W 003°18'0 0.0
2015-Jun-27 22:31N 58°58' W 003°18'0 0.0
2015-Jun-27 21:31N 58°58' W 003°18'0 0.0
2015-Jun-27 20:25N 58°58' W 003°18'0 0.0
2015-Jun-27 19:31N 58°58' W 003°18'1111.0
2015-Jun-27 18:34N 58°49' W 003°29'1212.3
2015-Jun-27 17:33N 58°37' W 003°32'1010.5
2015-Jun-27 16:33N 58°47' W 003°29'1212.2
2015-Jun-27 15:33N 58°58' W 003°18'0 0.0
2015-Jun-27 14:34N 58°58' W 003°18'2 1.7
2015-Jun-27 13:33N 58°57' W 003°20'1716.9
2015-Jun-27 12:33N 58°41' W 003°31'4 4.2
2015-Jun-27 11:33N 58°37' W 003°32'1616.1
2015-Jun-27 10:33N 58°53' W 003°28'7 7.3
2015-Jun-27 09:33N 58°58' W 003°18'9 9.4
2015-Jun-27 08:34N 58°51' W 003°29'1413.9
2015-Jun-27 07:33N 58°37' W 003°32'9 8.7
2015-Jun-27 06:33N 58°45' W 003°30'1414.1
2015-Jun-27 05:33N 58°58' W 003°18'0 0.0
2015-Jun-27 04:31N 58°58' W 003°18'0 0.0
2015-Jun-27 03:31N 58°58' W 003°18'0 0.0
2015-Jun-27 02:31N 58°58' W 003°18'0 0.0
2015-Jun-27 01:31N 58°58' W 003°18'0 0.0
2015-Jun-27 00:31N 58°58' W 003°18'0 0.0
2015-Jun-26 23:31N 58°58' W 003°18'0 0.0
2015-Jun-26 22:31N 58°58' W 003°18'0 0.0
2015-Jun-26 21:28N 58°58' W 003°18'0 0.0
2015-Jun-26 20:31N 58°58' W 003°18'0 0.0
2015-Jun-26 19:31N 58°58' W 003°18'1212.5
2015-Jun-26 18:33N 58°47' W 003°29'1110.6
2015-Jun-26 17:33N 58°37' W 003°32'1111.4
2015-Jun-26 16:33N 58°48' W 003°29'1111.6
2015-Jun-26 15:34N 58°58' W 003°18'0 0.0
2015-Jun-26 14:33N 58°58' W 003°18'0 0.4
2015-Jun-26 13:33N 58°57' W 003°18'1615.5
2015-Jun-26 12:33N 58°43' W 003°30'7 6.7
2015-Jun-26 11:33N 58°37' W 003°32'1515.4
2015-Jun-26 10:33N 58°52' W 003°28'8 8.0
2015-Jun-26 09:33N 58°58' W 003°18'8 7.8
2015-Jun-26 08:33N 58°52' W 003°28'1615.7
2015-Jun-26 07:33N 58°37' W 003°32'6 6.5
2015-Jun-26 06:34N 58°43' W 003°30'1615.7
2015-Jun-26 05:33N 58°57' W 003°18'0 0.5
2015-Jun-26 04:33N 58°58' W 003°18'0 0.0
2015-Jun-26 03:33N 58°58' W 003°18'0 0.0
2015-Jun-26 02:33N 58°58' W 003°18'0 0.0
2015-Jun-26 01:33N 58°58' W 003°18'0 0.0
2015-Jun-26 00:33N 58°58' W 003°18'0 0.0
2015-Jun-25 23:33N 58°58' W 003°18'0 0.0
2015-Jun-25 22:33N 58°58' W 003°18'0 0.0
2015-Jun-25 21:27N 58°58' W 003°18'0 0.0
2015-Jun-25 20:33N 58°58' W 003°18'0 0.0
2015-Jun-25 19:31N 58°58' W 003°18'1112.0
2015-Jun-25 18:33N 58°48' W 003°29'1111.4
2015-Jun-25 17:33N 58°37' W 003°32'1110.9
2015-Jun-25 16:33N 58°47' W 003°29'1212.0
2015-Jun-25 15:33N 58°58' W 003°18'0 0.0
2015-Jun-25 14:33N 58°58' W 003°18'1 0.6
2015-Jun-25 13:33N 58°57' W 003°17'1515.4
2015-Jun-25 12:34N 58°44' W 003°31'7 6.5
2015-Jun-25 11:30N 58°37' W 003°32'1515.6
2015-Jun-25 10:33N 58°51' W 003°28'9 8.6
2015-Jun-25 09:33N 58°58' W 003°18'7 7.5
2015-Jun-25 08:33N 58°52' W 003°28'1615.9
2015-Jun-25 07:33N 58°37' W 003°32'6 6.5
2015-Jun-25 06:34N 58°43' W 003°30'1615.7
2015-Jun-25 05:33N 58°57' W 003°18'  

Dump ship's entire track history